Bethlehem, West Bank
Current Conditions -  °F | °C
As of 10:20 AM on Sunday 23 Nov 2014 (Local Time) from LLBG Reporting Station
Scattered Clouds Scattered Clouds  
Wind Chill: 61°   Ceiling: Unl
Heat Index: 61°   Visibility: 6mi
Dew Point: 54°   Wind: 6mph
Humidity: 77%   Direction: 170°S
Pressure: 30.03"   Gusts: NA
Location:  31.71°N, 35.2°E
Report Text: LLBG 230720Z 17005KT 9999 SCT045 16/12 Q1017 NOSIG RMK BKN070RERA
Loading
Personal Weather Stations






























Interactive Weather Map New forecast layout! Learn more

10-Day Weather Forecast

Advertisements
Track Severe Weather on mobile